createdAt,value
2023-02-12T00:10:58.624Z,96.8
2023-02-12T00:22:58.690Z,96.8
2023-02-12T00:34:58.623Z,96.8
2023-02-12T00:46:58.619Z,96.8
2023-02-12T00:58:58.687Z,96.8
2023-02-12T01:10:58.718Z,96.8
2023-02-12T01:22:58.713Z,96.8
2023-02-12T01:34:58.627Z,96.8
2023-02-12T01:46:58.719Z,96.8
2023-02-12T01:59:00.761Z,96.8
2023-02-12T02:10:58.735Z,96.8
2023-02-12T02:22:58.615Z,96.8
2023-02-12T02:34:58.789Z,96.8
2023-02-12T02:46:58.692Z,96.8
2023-02-12T02:58:58.731Z,96.8
2023-02-12T03:10:58.717Z,96.8
2023-02-12T03:22:58.617Z,96.8
2023-02-12T03:34:58.633Z,96.8
2023-02-12T03:46:58.616Z,96.8
2023-02-12T03:58:58.713Z,96.8
2023-02-12T04:10:58.622Z,96.8
2023-02-12T04:22:58.668Z,96.8
2023-02-12T04:34:58.607Z,96.8
2023-02-12T04:46:58.740Z,96.8
2023-02-12T04:58:58.709Z,96.8
2023-02-12T05:10:58.732Z,96.8
2023-02-12T05:22:58.623Z,96.8
2023-02-12T05:34:58.618Z,96.8
2023-02-12T05:46:58.631Z,96.8
2023-02-12T05:58:58.620Z,96.8
2023-02-12T06:10:58.827Z,96.8
2023-02-12T06:22:58.711Z,96.8
2023-02-12T06:34:58.623Z,96.8
2023-02-12T06:46:58.771Z,96.8
2023-02-12T06:58:58.698Z,96.8
2023-02-12T07:10:58.699Z,96.8
2023-02-12T07:22:58.689Z,96.8
2023-02-12T07:34:58.754Z,96.8
2023-02-12T07:46:58.646Z,96.9
2023-02-12T07:58:58.730Z,96.9
2023-02-12T08:10:58.617Z,96.9
2023-02-12T08:22:58.630Z,96.9
2023-02-12T08:34:58.624Z,96.9
2023-02-12T08:46:58.672Z,97.0
2023-02-12T08:58:58.692Z,97.0
2023-02-12T09:10:58.728Z,97.0
2023-02-12T09:22:58.615Z,96.5
2023-02-12T09:34:58.623Z,95.5
2023-02-12T09:46:58.706Z,94.9
2023-02-12T09:58:58.734Z,93.2
2023-02-12T10:10:58.756Z,91.2
2023-02-12T10:22:58.743Z,90.5
2023-02-12T10:34:58.622Z,89.6
2023-02-12T10:46:58.737Z,88.6
2023-02-12T10:58:58.610Z,87.1
2023-02-12T11:10:58.719Z,85.8
2023-02-12T11:22:58.648Z,84.8
2023-02-12T11:34:58.729Z,84.5
2023-02-12T11:46:58.834Z,84.7
2023-02-12T11:58:58.624Z,85.6
2023-02-12T12:10:58.702Z,84.1
2023-02-12T12:22:58.763Z,84.0
2023-02-12T12:34:58.631Z,82.6
2023-02-12T12:46:58.732Z,81.2
2023-02-12T12:58:58.701Z,83.3
2023-02-12T13:10:58.668Z,81.2
2023-02-12T13:22:58.643Z,79.2
2023-02-12T13:34:58.623Z,80.6
2023-02-12T13:46:58.708Z,80.6
2023-02-12T13:58:58.624Z,81.7
2023-02-12T14:10:58.811Z,82.1
2023-02-12T14:22:58.626Z,82.4
2023-02-12T14:34:58.619Z,82.2
2023-02-12T14:46:58.758Z,82.6
2023-02-12T14:58:58.713Z,83.5
2023-02-12T15:10:58.728Z,83.4
2023-02-12T15:22:58.620Z,82.9
2023-02-12T15:34:58.732Z,83.3
2023-02-12T15:46:58.618Z,83.7
2023-02-12T15:58:59.063Z,83.5
2023-02-12T16:10:58.712Z,84.8
2023-02-12T16:22:58.613Z,84.8
2023-02-12T16:34:58.619Z,85.3
2023-02-12T16:46:58.728Z,85.9
2023-02-12T16:58:58.709Z,86.3
2023-02-12T17:10:58.618Z,86.9
2023-02-12T17:22:58.741Z,87.7
2023-02-12T17:34:58.711Z,88.2
2023-02-12T17:46:58.620Z,87.8
2023-02-12T17:58:58.742Z,87.9
2023-02-12T18:10:58.709Z,88.0
2023-02-12T18:23:00.493Z,88.6
2023-02-12T18:34:58.710Z,88.6
2023-02-12T18:46:58.613Z,88.5
2023-02-12T18:58:58.698Z,89.4
2023-02-12T19:10:58.973Z,89.4
2023-02-12T19:22:58.689Z,90.0
2023-02-12T19:34:58.611Z,90.1
2023-02-12T19:46:58.620Z,90.6
2023-02-12T19:58:58.732Z,91.5
2023-02-12T20:10:58.788Z,91.8
2023-02-12T20:22:58.735Z,92.1
2023-02-12T20:34:58.641Z,92.1
2023-02-12T20:46:58.625Z,92.4
2023-02-12T20:58:58.650Z,92.7
2023-02-12T21:10:58.732Z,92.7
2023-02-12T21:22:58.712Z,92.6
2023-02-12T21:34:58.619Z,92.7
2023-02-12T21:46:58.669Z,92.9
2023-02-12T21:58:58.607Z,93.2
2023-02-12T22:10:59.107Z,93.5
2023-02-12T22:22:58.662Z,93.5
2023-02-12T22:34:58.699Z,93.4
2023-02-12T22:46:58.670Z,93.2
2023-02-12T22:58:58.605Z,93.1
2023-02-12T23:10:59.148Z,93.1
2023-02-12T23:22:58.648Z,93.0
2023-02-12T23:34:58.726Z,93.1
2023-02-12T23:46:58.733Z,93.1
2023-02-12T23:58:58.687Z,93.1
